sensor_id;sensor_type;location;lat;lon;timestamp;temperature;humidity
4374;DHT22;2201;51.100;6.814;2023-11-19T00:01:33;11.00;98.20
4374;DHT22;2201;51.100;6.814;2023-11-19T00:04:00;11.00;98.20
4374;DHT22;2201;51.100;6.814;2023-11-19T00:06:27;11.10;98.20
4374;DHT22;2201;51.100;6.814;2023-11-19T00:08:54;11.20;98.20
4374;DHT22;2201;51.100;6.814;2023-11-19T00:11:22;11.20;98.20
4374;DHT22;2201;51.100;6.814;2023-11-19T00:13:49;11.20;98.20
4374;DHT22;2201;51.100;6.814;2023-11-19T00:16:16;11.30;98.20
4374;DHT22;2201;51.100;6.814;2023-11-19T00:18:43;11.40;98.20
4374;DHT22;2201;51.100;6.814;2023-11-19T00:21:10;11.40;98.20
4374;DHT22;2201;51.100;6.814;2023-11-19T00:23:37;11.40;98.20
4374;DHT22;2201;51.100;6.814;2023-11-19T00:26:05;11.50;98.20
4374;DHT22;2201;51.100;6.814;2023-11-19T00:28:33;11.50;98.20
4374;DHT22;2201;51.100;6.814;2023-11-19T00:31:00;11.50;98.20
4374;DHT22;2201;51.100;6.814;2023-11-19T00:33:28;11.60;98.20
4374;DHT22;2201;51.100;6.814;2023-11-19T00:35:56;11.60;98.20
4374;DHT22;2201;51.100;6.814;2023-11-19T00:38:23;11.60;98.20
4374;DHT22;2201;51.100;6.814;2023-11-19T00:40:50;11.60;98.20
4374;DHT22;2201;51.100;6.814;2023-11-19T00:43:17;11.70;98.20
4374;DHT22;2201;51.100;6.814;2023-11-19T00:45:49;11.70;98.20
4374;DHT22;2201;51.100;6.814;2023-11-19T00:48:16;11.80;98.20
4374;DHT22;2201;51.100;6.814;2023-11-19T00:50:43;11.80;98.20
4374;DHT22;2201;51.100;6.814;2023-11-19T00:53:11;11.90;98.20
4374;DHT22;2201;51.100;6.814;2023-11-19T00:55:38;11.90;98.20
4374;DHT22;2201;51.100;6.814;2023-11-19T00:58:05;12.00;98.20
4374;DHT22;2201;51.100;6.814;2023-11-19T01:00:32;12.00;98.20
4374;DHT22;2201;51.100;6.814;2023-11-19T01:03:01;12.10;98.20
4374;DHT22;2201;51.100;6.814;2023-11-19T01:05:28;12.10;98.20
4374;DHT22;2201;51.100;6.814;2023-11-19T01:07:55;12.10;98.20
4374;DHT22;2201;51.100;6.814;2023-11-19T01:10:23;12.20;98.20
4374;DHT22;2201;51.100;6.814;2023-11-19T01:12:51;12.20;98.20
4374;DHT22;2201;51.100;6.814;2023-11-19T01:15:18;12.20;98.20
4374;DHT22;2201;51.100;6.814;2023-11-19T01:17:46;12.30;98.20
4374;DHT22;2201;51.100;6.814;2023-11-19T01:20:14;12.30;98.20
4374;DHT22;2201;51.100;6.814;2023-11-19T01:22:41;12.30;98.20
4374;DHT22;2201;51.100;6.814;2023-11-19T01:25:09;12.30;98.20
4374;DHT22;2201;51.100;6.814;2023-11-19T01:27:35;12.40;98.20
4374;DHT22;2201;51.100;6.814;2023-11-19T01:30:03;12.40;98.20
4374;DHT22;2201;51.100;6.814;2023-11-19T01:32:31;12.40;98.20
4374;DHT22;2201;51.100;6.814;2023-11-19T01:34:58;12.50;98.20
4374;DHT22;2201;51.100;6.814;2023-11-19T01:37:26;12.50;98.20
4374;DHT22;2201;51.100;6.814;2023-11-19T01:39:53;12.50;98.20
4374;DHT22;2201;51.100;6.814;2023-11-19T01:42:20;12.60;98.20
4374;DHT22;2201;51.100;6.814;2023-11-19T01:44:56;12.50;98.20
4374;DHT22;2201;51.100;6.814;2023-11-19T01:47:24;12.60;98.20
4374;DHT22;2201;51.100;6.814;2023-11-19T01:49:51;12.60;98.20
4374;DHT22;2201;51.100;6.814;2023-11-19T01:52:18;12.60;98.20
4374;DHT22;2201;51.100;6.814;2023-11-19T01:54:47;12.60;98.20
4374;DHT22;2201;51.100;6.814;2023-11-19T01:57:15;12.60;98.20
4374;DHT22;2201;51.100;6.814;2023-11-19T01:59:42;12.60;98.20
4374;DHT22;2201;51.100;6.814;2023-11-19T02:02:09;12.60;98.20
4374;DHT22;2201;51.100;6.814;2023-11-19T02:04:37;12.60;98.20
4374;DHT22;2201;51.100;6.814;2023-11-19T02:07:04;12.70;98.20
4374;DHT22;2201;51.100;6.814;2023-11-19T02:09:31;12.70;98.20
4374;DHT22;2201;51.100;6.814;2023-11-19T02:11:59;12.70;98.20
4374;DHT22;2201;51.100;6.814;2023-11-19T02:14:27;12.70;98.20
4374;DHT22;2201;51.100;6.814;2023-11-19T02:16:54;12.70;98.20
4374;DHT22;2201;51.100;6.814;2023-11-19T02:19:21;12.80;98.20
4374;DHT22;2201;51.100;6.814;2023-11-19T02:21:48;12.80;98.20
4374;DHT22;2201;51.100;6.814;2023-11-19T02:24:17;12.80;98.20
4374;DHT22;2201;51.100;6.814;2023-11-19T02:26:52;12.80;98.20
4374;DHT22;2201;51.100;6.814;2023-11-19T02:29:23;12.90;98.20
4374;DHT22;2201;51.100;6.814;2023-11-19T02:31:50;12.90;98.20
4374;DHT22;2201;51.100;6.814;2023-11-19T02:34:17;12.90;98.20
4374;DHT22;2201;51.100;6.814;2023-11-19T02:36:43;12.90;98.20
4374;DHT22;2201;51.100;6.814;2023-11-19T02:39:12;13.00;98.20
4374;DHT22;2201;51.100;6.814;2023-11-19T02:41:40;13.00;98.20
4374;DHT22;2201;51.100;6.814;2023-11-19T02:44:07;12.90;98.20
4374;DHT22;2201;51.100;6.814;2023-11-19T02:46:35;12.90;98.20
4374;DHT22;2201;51.100;6.814;2023-11-19T02:49:01;12.90;98.20
4374;DHT22;2201;51.100;6.814;2023-11-19T02:51:28;12.90;98.20
4374;DHT22;2201;51.100;6.814;2023-11-19T02:53:56;12.80;98.20
4374;DHT22;2201;51.100;6.814;2023-11-19T02:56:25;12.80;98.20
4374;DHT22;2201;51.100;6.814;2023-11-19T02:58:52;12.80;98.20
4374;DHT22;2201;51.100;6.814;2023-11-19T03:01:22;12.90;98.20
4374;DHT22;2201;51.100;6.814;2023-11-19T03:03:56;12.90;98.20
4374;DHT22;2201;51.100;6.814;2023-11-19T03:06:24;12.90;98.20
4374;DHT22;2201;51.100;6.814;2023-11-19T03:08:51;12.90;98.20
4374;DHT22;2201;51.100;6.814;2023-11-19T03:11:17;12.90;98.20
4374;DHT22;2201;51.100;6.814;2023-11-19T03:13:44;12.90;98.20
4374;DHT22;2201;51.100;6.814;2023-11-19T03:16:12;12.90;98.20
4374;DHT22;2201;51.100;6.814;2023-11-19T03:18:39;12.90;98.20
4374;DHT22;2201;51.100;6.814;2023-11-19T03:21:07;12.90;98.20
4374;DHT22;2201;51.100;6.814;2023-11-19T03:23:35;12.90;98.20
4374;DHT22;2201;51.100;6.814;2023-11-19T03:26:02;13.00;98.20
4374;DHT22;2201;51.100;6.814;2023-11-19T03:28:31;13.00;98.20
4374;DHT22;2201;51.100;6.814;2023-11-19T03:30:57;13.00;98.20
4374;DHT22;2201;51.100;6.814;2023-11-19T03:33:24;13.00;98.20
4374;DHT22;2201;51.100;6.814;2023-11-19T03:35:51;13.00;98.20
4374;DHT22;2201;51.100;6.814;2023-11-19T03:38:19;13.00;98.20
4374;DHT22;2201;51.100;6.814;2023-11-19T03:40:46;13.00;98.20
4374;DHT22;2201;51.100;6.814;2023-11-19T03:43:13;13.00;98.20
4374;DHT22;2201;51.100;6.814;2023-11-19T03:45:39;13.00;98.20
4374;DHT22;2201;51.100;6.814;2023-11-19T03:48:06;13.00;98.20
4374;DHT22;2201;51.100;6.814;2023-11-19T03:50:33;13.00;98.20
4374;DHT22;2201;51.100;6.814;2023-11-19T03:53:00;13.00;98.20
4374;DHT22;2201;51.100;6.814;2023-11-19T03:55:29;13.00;98.20
4374;DHT22;2201;51.100;6.814;2023-11-19T03:57:56;13.00;98.20
4374;DHT22;2201;51.100;6.814;2023-11-19T04:00:23;13.00;98.20
4374;DHT22;2201;51.100;6.814;2023-11-19T04:02:50;13.00;98.20
4374;DHT22;2201;51.100;6.814;2023-11-19T04:05:17;12.90;98.20
4374;DHT22;2201;51.100;6.814;2023-11-19T04:07:44;12.90;98.20
4374;DHT22;2201;51.100;6.814;2023-11-19T04:10:11;12.90;98.20
4374;DHT22;2201;51.100;6.814;2023-11-19T04:12:39;12.80;98.20
4374;DHT22;2201;51.100;6.814;2023-11-19T04:15:06;12.80;98.20
4374;DHT22;2201;51.100;6.814;2023-11-19T04:17:35;12.70;98.20
4374;DHT22;2201;51.100;6.814;2023-11-19T04:20:02;12.70;98.20
4374;DHT22;2201;51.100;6.814;2023-11-19T04:22:29;12.60;98.20
4374;DHT22;2201;51.100;6.814;2023-11-19T04:24:56;12.60;98.20
4374;DHT22;2201;51.100;6.814;2023-11-19T04:27:23;12.60;98.20
4374;DHT22;2201;51.100;6.814;2023-11-19T04:29:52;12.50;98.20
4374;DHT22;2201;51.100;6.814;2023-11-19T04:32:18;12.50;98.20
4374;DHT22;2201;51.100;6.814;2023-11-19T04:34:46;12.50;98.20
4374;DHT22;2201;51.100;6.814;2023-11-19T04:37:13;12.40;98.20
4374;DHT22;2201;51.100;6.814;2023-11-19T04:39:44;12.40;98.20
4374;DHT22;2201;51.100;6.814;2023-11-19T04:42:11;12.40;98.20
4374;DHT22;2201;51.100;6.814;2023-11-19T04:44:38;12.30;98.20
4374;DHT22;2201;51.100;6.814;2023-11-19T04:47:06;12.30;98.20
4374;DHT22;2201;51.100;6.814;2023-11-19T04:49:33;12.40;98.20
4374;DHT22;2201;51.100;6.814;2023-11-19T04:52:00;12.40;98.20
4374;DHT22;2201;51.100;6.814;2023-11-19T04:54:28;12.40;98.20
4374;DHT22;2201;51.100;6.814;2023-11-19T04:56:55;12.40;98.20
4374;DHT22;2201;51.100;6.814;2023-11-19T04:59:21;12.40;98.20
4374;DHT22;2201;51.100;6.814;2023-11-19T05:01:48;12.40;98.20
4374;DHT22;2201;51.100;6.814;2023-11-19T05:04:17;12.40;98.20
4374;DHT22;2201;51.100;6.814;2023-11-19T05:06:44;12.40;98.20
4374;DHT22;2201;51.100;6.814;2023-11-19T05:09:11;12.30;98.20
4374;DHT22;2201;51.100;6.814;2023-11-19T05:11:39;12.30;98.20
4374;DHT22;2201;51.100;6.814;2023-11-19T05:14:05;12.30;98.20
4374;DHT22;2201;51.100;6.814;2023-11-19T05:16:32;12.30;98.20
4374;DHT22;2201;51.100;6.814;2023-11-19T05:19:00;12.30;98.20
4374;DHT22;2201;51.100;6.814;2023-11-19T05:21:28;12.30;98.20
4374;DHT22;2201;51.100;6.814;2023-11-19T05:23:54;12.30;98.20
4374;DHT22;2201;51.100;6.814;2023-11-19T05:26:23;12.30;98.20
4374;DHT22;2201;51.100;6.814;2023-11-19T05:28:50;12.30;98.20
4374;DHT22;2201;51.100;6.814;2023-11-19T05:31:18;12.30;98.20
4374;DHT22;2201;51.100;6.814;2023-11-19T05:33:44;12.30;98.20
4374;DHT22;2201;51.100;6.814;2023-11-19T05:36:12;12.20;98.20
4374;DHT22;2201;51.100;6.814;2023-11-19T05:38:40;12.20;98.20
4374;DHT22;2201;51.100;6.814;2023-11-19T05:41:07;12.20;98.20
4374;DHT22;2201;51.100;6.814;2023-11-19T05:43:34;12.20;98.20
4374;DHT22;2201;51.100;6.814;2023-11-19T05:46:01;12.20;98.20
4374;DHT22;2201;51.100;6.814;2023-11-19T05:48:28;12.10;98.20
4374;DHT22;2201;51.100;6.814;2023-11-19T05:50:56;12.10;98.20
4374;DHT22;2201;51.100;6.814;2023-11-19T05:53:23;12.10;98.20
4374;DHT22;2201;51.100;6.814;2023-11-19T05:55:51;12.10;98.20
4374;DHT22;2201;51.100;6.814;2023-11-19T05:58:23;12.10;98.20
4374;DHT22;2201;51.100;6.814;2023-11-19T06:00:54;12.10;98.20
4374;DHT22;2201;51.100;6.814;2023-11-19T06:03:21;12.10;98.20
4374;DHT22;2201;51.100;6.814;2023-11-19T06:05:48;12.10;98.20
4374;DHT22;2201;51.100;6.814;2023-11-19T06:08:15;12.00;98.20
4374;DHT22;2201;51.100;6.814;2023-11-19T06:10:43;12.00;98.20
4374;DHT22;2201;51.100;6.814;2023-11-19T06:13:13;12.00;98.20
4374;DHT22;2201;51.100;6.814;2023-11-19T06:15:40;12.00;98.20
4374;DHT22;2201;51.100;6.814;2023-11-19T06:18:07;12.00;98.20
4374;DHT22;2201;51.100;6.814;2023-11-19T06:20:34;12.00;98.20
4374;DHT22;2201;51.100;6.814;2023-11-19T06:23:00;12.00;98.20
4374;DHT22;2201;51.100;6.814;2023-11-19T06:25:27;12.00;98.20
4374;DHT22;2201;51.100;6.814;2023-11-19T06:27:54;12.00;98.20
4374;DHT22;2201;51.100;6.814;2023-11-19T06:30:24;11.90;98.20
4374;DHT22;2201;51.100;6.814;2023-11-19T06:32:51;11.90;98.20
4374;DHT22;2201;51.100;6.814;2023-11-19T06:35:18;11.90;98.20
4374;DHT22;2201;51.100;6.814;2023-11-19T06:37:44;11.90;98.20
4374;DHT22;2201;51.100;6.814;2023-11-19T06:40:11;11.90;98.20
4374;DHT22;2201;51.100;6.814;2023-11-19T06:42:41;11.80;98.20
4374;DHT22;2201;51.100;6.814;2023-11-19T06:45:08;11.80;98.20
4374;DHT22;2201;51.100;6.814;2023-11-19T06:47:37;11.80;98.20
4374;DHT22;2201;51.100;6.814;2023-11-19T06:50:07;11.80;98.20
4374;DHT22;2201;51.100;6.814;2023-11-19T06:52:34;11.70;98.20
4374;DHT22;2201;51.100;6.814;2023-11-19T06:55:03;11.70;98.20
4374;DHT22;2201;51.100;6.814;2023-11-19T06:57:30;11.70;98.20
4374;DHT22;2201;51.100;6.814;2023-11-19T06:59:57;11.70;98.20
4374;DHT22;2201;51.100;6.814;2023-11-19T07:02:24;11.70;98.20
4374;DHT22;2201;51.100;6.814;2023-11-19T07:04:52;11.60;98.20
4374;DHT22;2201;51.100;6.814;2023-11-19T07:07:20;11.70;98.20
4374;DHT22;2201;51.100;6.814;2023-11-19T07:09:46;11.70;98.20
4374;DHT22;2201;51.100;6.814;2023-11-19T07:12:13;11.70;98.20
4374;DHT22;2201;51.100;6.814;2023-11-19T07:14:41;11.60;98.20
4374;DHT22;2201;51.100;6.814;2023-11-19T07:17:07;11.60;98.20
4374;DHT22;2201;51.100;6.814;2023-11-19T07:19:35;11.60;98.20
4374;DHT22;2201;51.100;6.814;2023-11-19T07:22:05;11.60;98.20
4374;DHT22;2201;51.100;6.814;2023-11-19T07:24:32;11.60;98.20
4374;DHT22;2201;51.100;6.814;2023-11-19T07:26:59;11.60;98.20
4374;DHT22;2201;51.100;6.814;2023-11-19T07:29:26;11.60;98.20
4374;DHT22;2201;51.100;6.814;2023-11-19T07:31:52;11.60;98.20
4374;DHT22;2201;51.100;6.814;2023-11-19T07:34:19;11.60;98.20
4374;DHT22;2201;51.100;6.814;2023-11-19T07:36:46;11.60;98.20
4374;DHT22;2201;51.100;6.814;2023-11-19T07:39:14;11.60;98.20
4374;DHT22;2201;51.100;6.814;2023-11-19T07:41:41;11.70;98.20
4374;DHT22;2201;51.100;6.814;2023-11-19T07:44:08;11.70;98.20
4374;DHT22;2201;51.100;6.814;2023-11-19T07:46:35;11.70;98.20
4374;DHT22;2201;51.100;6.814;2023-11-19T07:49:02;11.80;98.20
4374;DHT22;2201;51.100;6.814;2023-11-19T07:51:29;11.80;98.20
4374;DHT22;2201;51.100;6.814;2023-11-19T07:53:56;11.80;98.20
4374;DHT22;2201;51.100;6.814;2023-11-19T07:56:24;11.80;98.20
4374;DHT22;2201;51.100;6.814;2023-11-19T07:58:51;11.80;98.20
4374;DHT22;2201;51.100;6.814;2023-11-19T08:01:18;11.90;98.20
4374;DHT22;2201;51.100;6.814;2023-11-19T08:03:45;11.90;98.20
4374;DHT22;2201;51.100;6.814;2023-11-19T08:06:11;11.90;98.20
4374;DHT22;2201;51.100;6.814;2023-11-19T08:08:38;12.00;98.20
4374;DHT22;2201;51.100;6.814;2023-11-19T08:11:06;12.00;98.20
4374;DHT22;2201;51.100;6.814;2023-11-19T08:13:34;12.10;98.20
4374;DHT22;2201;51.100;6.814;2023-11-19T08:16:01;12.10;98.20
4374;DHT22;2201;51.100;6.814;2023-11-19T08:18:28;12.20;98.20
4374;DHT22;2201;51.100;6.814;2023-11-19T08:20:55;12.20;98.20
4374;DHT22;2201;51.100;6.814;2023-11-19T08:23:23;12.20;98.20
4374;DHT22;2201;51.100;6.814;2023-11-19T08:25:51;12.30;98.20
4374;DHT22;2201;51.100;6.814;2023-11-19T08:28:18;12.40;98.20
4374;DHT22;2201;51.100;6.814;2023-11-19T08:30:46;12.40;98.20
4374;DHT22;2201;51.100;6.814;2023-11-19T08:33:13;12.50;98.20
4374;DHT22;2201;51.100;6.814;2023-11-19T08:35:40;12.50;98.20
4374;DHT22;2201;51.100;6.814;2023-11-19T08:38:08;12.50;98.20
4374;DHT22;2201;51.100;6.814;2023-11-19T08:40:35;12.60;98.20
4374;DHT22;2201;51.100;6.814;2023-11-19T08:43:14;12.60;98.20
4374;DHT22;2201;51.100;6.814;2023-11-19T08:45:46;12.70;98.20
4374;DHT22;2201;51.100;6.814;2023-11-19T08:48:12;12.70;98.20
4374;DHT22;2201;51.100;6.814;2023-11-19T08:53:20;12.80;98.20
4374;DHT22;2201;51.100;6.814;2023-11-19T08:55:47;12.80;98.20
4374;DHT22;2201;51.100;6.814;2023-11-19T08:58:16;12.80;98.20
4374;DHT22;2201;51.100;6.814;2023-11-19T09:01:16;12.90;98.20
4374;DHT22;2201;51.100;6.814;2023-11-19T09:03:46;12.90;98.20
4374;DHT22;2201;51.100;6.814;2023-11-19T09:06:18;12.90;98.20
4374;DHT22;2201;51.100;6.814;2023-11-19T09:08:48;12.90;98.20
4374;DHT22;2201;51.100;6.814;2023-11-19T09:11:17;12.90;98.20
4374;DHT22;2201;51.100;6.814;2023-11-19T09:16:21;12.90;98.20
4374;DHT22;2201;51.100;6.814;2023-11-19T09:18:50;12.90;98.20
4374;DHT22;2201;51.100;6.814;2023-11-19T09:21:18;12.90;98.20
4374;DHT22;2201;51.100;6.814;2023-11-19T09:23:45;12.90;98.20
4374;DHT22;2201;51.100;6.814;2023-11-19T09:26:13;12.90;98.20
4374;DHT22;2201;51.100;6.814;2023-11-19T09:28:51;13.00;98.20
4374;DHT22;2201;51.100;6.814;2023-11-19T09:31:21;13.00;98.20
4374;DHT22;2201;51.100;6.814;2023-11-19T09:33:48;13.10;98.20
4374;DHT22;2201;51.100;6.814;2023-11-19T09:36:16;13.20;98.20
4374;DHT22;2201;51.100;6.814;2023-11-19T09:38:45;13.20;98.20
4374;DHT22;2201;51.100;6.814;2023-11-19T09:41:21;13.30;98.20
4374;DHT22;2201;51.100;6.814;2023-11-19T09:43:51;13.30;98.20
4374;DHT22;2201;51.100;6.814;2023-11-19T09:46:23;13.30;98.20
4374;DHT22;2201;51.100;6.814;2023-11-19T09:48:53;13.30;98.20
4374;DHT22;2201;51.100;6.814;2023-11-19T09:51:21;13.40;98.20
4374;DHT22;2201;51.100;6.814;2023-11-19T09:53:48;13.40;98.20
4374;DHT22;2201;51.100;6.814;2023-11-19T09:56:15;13.40;98.20
4374;DHT22;2201;51.100;6.814;2023-11-19T09:58:42;13.50;98.20
4374;DHT22;2201;51.100;6.814;2023-11-19T10:01:09;13.50;98.20
4374;DHT22;2201;51.100;6.814;2023-11-19T10:03:39;13.50;98.20
4374;DHT22;2201;51.100;6.814;2023-11-19T10:06:10;13.50;98.20
4374;DHT22;2201;51.100;6.814;2023-11-19T10:08:38;13.60;98.20
4374;DHT22;2201;51.100;6.814;2023-11-19T10:11:06;13.70;98.20
4374;DHT22;2201;51.100;6.814;2023-11-19T10:13:35;13.80;98.20
4374;DHT22;2201;51.100;6.814;2023-11-19T10:16:04;14.00;98.20
4374;DHT22;2201;51.100;6.814;2023-11-19T10:18:34;14.10;98.20
4374;DHT22;2201;51.100;6.814;2023-11-19T10:21:05;14.10;98.20
4374;DHT22;2201;51.100;6.814;2023-11-19T10:23:48;14.20;98.20
4374;DHT22;2201;51.100;6.814;2023-11-19T10:26:16;14.20;98.20
4374;DHT22;2201;51.100;6.814;2023-11-19T10:28:43;14.20;98.20
4374;DHT22;2201;51.100;6.814;2023-11-19T10:31:12;14.20;98.20
4374;DHT22;2201;51.100;6.814;2023-11-19T10:33:40;14.10;98.20
4374;DHT22;2201;51.100;6.814;2023-11-19T10:36:09;14.10;98.20
4374;DHT22;2201;51.100;6.814;2023-11-19T10:38:39;14.10;98.20
4374;DHT22;2201;51.100;6.814;2023-11-19T10:41:07;14.20;98.20
4374;DHT22;2201;51.100;6.814;2023-11-19T10:43:43;14.20;98.20
4374;DHT22;2201;51.100;6.814;2023-11-19T10:46:12;14.20;98.20
4374;DHT22;2201;51.100;6.814;2023-11-19T10:48:40;14.20;98.20
4374;DHT22;2201;51.100;6.814;2023-11-19T10:51:09;14.30;98.20
4374;DHT22;2201;51.100;6.814;2023-11-19T10:53:37;14.30;98.20
4374;DHT22;2201;51.100;6.814;2023-11-19T10:56:10;14.40;98.20
4374;DHT22;2201;51.100;6.814;2023-11-19T10:58:37;14.40;98.20
4374;DHT22;2201;51.100;6.814;2023-11-19T11:01:11;14.40;98.20
4374;DHT22;2201;51.100;6.814;2023-11-19T11:03:42;14.30;98.20
4374;DHT22;2201;51.100;6.814;2023-11-19T11:06:13;14.30;98.20
4374;DHT22;2201;51.100;6.814;2023-11-19T11:08:40;14.30;98.20
4374;DHT22;2201;51.100;6.814;2023-11-19T11:11:08;14.20;98.20
4374;DHT22;2201;51.100;6.814;2023-11-19T11:13:42;14.20;98.20
4374;DHT22;2201;51.100;6.814;2023-11-19T11:16:09;14.10;98.20
4374;DHT22;2201;51.100;6.814;2023-11-19T11:18:36;14.10;98.20
4374;DHT22;2201;51.100;6.814;2023-11-19T11:21:07;14.00;98.20
4374;DHT22;2201;51.100;6.814;2023-11-19T11:24:05;14.00;98.20
4374;DHT22;2201;51.100;6.814;2023-11-19T11:26:52;14.10;98.20
4374;DHT22;2201;51.100;6.814;2023-11-19T11:29:26;14.10;98.20
4374;DHT22;2201;51.100;6.814;2023-11-19T11:32:02;14.10;98.20
4374;DHT22;2201;51.100;6.814;2023-11-19T11:37:37;14.20;98.20
4374;DHT22;2201;51.100;6.814;2023-11-19T11:40:14;14.20;98.20
4374;DHT22;2201;51.100;6.814;2023-11-19T11:42:42;14.30;98.20
4374;DHT22;2201;51.100;6.814;2023-11-19T11:45:10;14.30;98.20
4374;DHT22;2201;51.100;6.814;2023-11-19T11:48:08;14.40;98.20
4374;DHT22;2201;51.100;6.814;2023-11-19T11:50:51;14.40;98.20
4374;DHT22;2201;51.100;6.814;2023-11-19T11:53:21;14.50;98.20
4374;DHT22;2201;51.100;6.814;2023-11-19T11:55:55;14.50;98.20
4374;DHT22;2201;51.100;6.814;2023-11-19T11:58:37;14.50;98.20
4374;DHT22;2201;51.100;6.814;2023-11-19T12:01:05;14.50;98.20
4374;DHT22;2201;51.100;6.814;2023-11-19T12:03:37;14.40;98.20
4374;DHT22;2201;51.100;6.814;2023-11-19T12:06:05;14.40;98.20
4374;DHT22;2201;51.100;6.814;2023-11-19T12:08:34;14.40;98.20
4374;DHT22;2201;51.100;6.814;2023-11-19T12:11:08;14.30;98.20
4374;DHT22;2201;51.100;6.814;2023-11-19T12:13:53;14.30;98.20
4374;DHT22;2201;51.100;6.814;2023-11-19T12:16:24;14.30;98.20
4374;DHT22;2201;51.100;6.814;2023-11-19T12:18:54;14.30;98.20
4374;DHT22;2201;51.100;6.814;2023-11-19T12:21:29;14.30;98.20
4374;DHT22;2201;51.100;6.814;2023-11-19T12:26:41;14.20;98.20
4374;DHT22;2201;51.100;6.814;2023-11-19T12:29:16;14.30;98.20
4374;DHT22;2201;51.100;6.814;2023-11-19T12:31:53;14.40;98.20
4374;DHT22;2201;51.100;6.814;2023-11-19T12:34:38;14.40;98.20
4374;DHT22;2201;51.100;6.814;2023-11-19T12:37:09;14.40;98.20
4374;DHT22;2201;51.100;6.814;2023-11-19T12:39:41;14.40;98.20
4374;DHT22;2201;51.100;6.814;2023-11-19T12:42:10;14.40;98.20
4374;DHT22;2201;51.100;6.814;2023-11-19T12:44:38;14.30;98.20
4374;DHT22;2201;51.100;6.814;2023-11-19T12:47:07;14.20;98.20
4374;DHT22;2201;51.100;6.814;2023-11-19T12:49:36;14.20;98.20
4374;DHT22;2201;51.100;6.814;2023-11-19T12:52:12;14.20;98.20
4374;DHT22;2201;51.100;6.814;2023-11-19T12:54:40;14.20;98.20
4374;DHT22;2201;51.100;6.814;2023-11-19T12:57:10;14.10;98.20
4374;DHT22;2201;51.100;6.814;2023-11-19T12:59:41;14.20;98.20
4374;DHT22;2201;51.100;6.814;2023-11-19T13:02:23;14.30;98.20
4374;DHT22;2201;51.100;6.814;2023-11-19T13:05:47;14.50;98.20
4374;DHT22;2201;51.100;6.814;2023-11-19T13:08:24;14.70;98.20
4374;DHT22;2201;51.100;6.814;2023-11-19T13:10:52;14.70;98.20
4374;DHT22;2201;51.100;6.814;2023-11-19T13:13:22;14.80;98.20
4374;DHT22;2201;51.100;6.814;2023-11-19T13:15:49;14.80;98.20
4374;DHT22;2201;51.100;6.814;2023-11-19T13:18:16;14.80;98.20
4374;DHT22;2201;51.100;6.814;2023-11-19T13:20:44;14.80;98.20
4374;DHT22;2201;51.100;6.814;2023-11-19T13:23:12;14.90;98.20
4374;DHT22;2201;51.100;6.814;2023-11-19T13:25:40;14.90;98.20
4374;DHT22;2201;51.100;6.814;2023-11-19T13:28:09;14.80;98.20
4374;DHT22;2201;51.100;6.814;2023-11-19T13:30:37;14.80;98.20
4374;DHT22;2201;51.100;6.814;2023-11-19T13:33:04;14.80;98.20
4374;DHT22;2201;51.100;6.814;2023-11-19T13:35:37;14.80;98.20
4374;DHT22;2201;51.100;6.814;2023-11-19T13:38:05;14.80;98.20
4374;DHT22;2201;51.100;6.814;2023-11-19T13:40:34;14.70;98.20
4374;DHT22;2201;51.100;6.814;2023-11-19T13:43:02;14.70;98.20
4374;DHT22;2201;51.100;6.814;2023-11-19T13:45:29;14.60;98.20
4374;DHT22;2201;51.100;6.814;2023-11-19T13:47:57;14.50;98.20
4374;DHT22;2201;51.100;6.814;2023-11-19T13:50:24;14.50;98.20
4374;DHT22;2201;51.100;6.814;2023-11-19T13:52:51;14.40;98.20
4374;DHT22;2201;51.100;6.814;2023-11-19T13:55:18;14.40;98.20
4374;DHT22;2201;51.100;6.814;2023-11-19T13:57:46;14.30;98.20
4374;DHT22;2201;51.100;6.814;2023-11-19T14:00:15;14.20;98.20
4374;DHT22;2201;51.100;6.814;2023-11-19T14:02:43;14.20;98.20
4374;DHT22;2201;51.100;6.814;2023-11-19T14:05:12;14.10;98.20
4374;DHT22;2201;51.100;6.814;2023-11-19T14:07:40;14.10;98.20
4374;DHT22;2201;51.100;6.814;2023-11-19T14:10:07;14.10;98.20
4374;DHT22;2201;51.100;6.814;2023-11-19T14:12:37;14.10;98.20
4374;DHT22;2201;51.100;6.814;2023-11-19T14:15:05;14.00;98.20
4374;DHT22;2201;51.100;6.814;2023-11-19T14:17:33;13.90;98.20
4374;DHT22;2201;51.100;6.814;2023-11-19T14:20:01;13.90;98.20
4374;DHT22;2201;51.100;6.814;2023-11-19T14:22:32;13.80;98.20
4374;DHT22;2201;51.100;6.814;2023-11-19T14:24:59;13.70;98.20
4374;DHT22;2201;51.100;6.814;2023-11-19T14:27:26;13.70;98.20
4374;DHT22;2201;51.100;6.814;2023-11-19T14:29:53;13.60;98.20
4374;DHT22;2201;51.100;6.814;2023-11-19T14:32:20;13.60;98.20
4374;DHT22;2201;51.100;6.814;2023-11-19T14:34:47;13.60;98.20
4374;DHT22;2201;51.100;6.814;2023-11-19T14:37:14;13.50;98.20
4374;DHT22;2201;51.100;6.814;2023-11-19T14:39:44;13.50;98.20
4374;DHT22;2201;51.100;6.814;2023-11-19T14:42:12;13.50;98.20
4374;DHT22;2201;51.100;6.814;2023-11-19T14:44:39;13.50;98.20
4374;DHT22;2201;51.100;6.814;2023-11-19T14:47:07;13.60;98.20
4374;DHT22;2201;51.100;6.814;2023-11-19T14:49:34;13.60;98.20
4374;DHT22;2201;51.100;6.814;2023-11-19T14:52:02;13.70;98.20
4374;DHT22;2201;51.100;6.814;2023-11-19T14:54:29;13.60;98.20
4374;DHT22;2201;51.100;6.814;2023-11-19T14:56:58;13.60;98.20
4374;DHT22;2201;51.100;6.814;2023-11-19T14:59:26;13.60;98.20
4374;DHT22;2201;51.100;6.814;2023-11-19T15:01:53;13.60;98.20
4374;DHT22;2201;51.100;6.814;2023-11-19T15:04:21;13.50;98.20
4374;DHT22;2201;51.100;6.814;2023-11-19T15:06:48;13.50;98.20
4374;DHT22;2201;51.100;6.814;2023-11-19T15:09:15;13.50;98.20
4374;DHT22;2201;51.100;6.814;2023-11-19T15:11:43;13.40;98.20
4374;DHT22;2201;51.100;6.814;2023-11-19T15:14:13;13.40;98.20
4374;DHT22;2201;51.100;6.814;2023-11-19T15:16:42;13.30;98.20
4374;DHT22;2201;51.100;6.814;2023-11-19T15:19:10;13.20;98.20
4374;DHT22;2201;51.100;6.814;2023-11-19T15:21:40;13.10;98.20
4374;DHT22;2201;51.100;6.814;2023-11-19T15:24:13;13.10;98.20
4374;DHT22;2201;51.100;6.814;2023-11-19T15:26:43;13.00;98.20
4374;DHT22;2201;51.100;6.814;2023-11-19T15:29:10;12.90;98.20
4374;DHT22;2201;51.100;6.814;2023-11-19T15:31:40;12.90;98.20
4374;DHT22;2201;51.100;6.814;2023-11-19T15:34:07;12.90;98.20
4374;DHT22;2201;51.100;6.814;2023-11-19T15:36:34;12.80;98.20
4374;DHT22;2201;51.100;6.814;2023-11-19T15:39:02;12.80;98.20
4374;DHT22;2201;51.100;6.814;2023-11-19T15:41:30;12.70;98.20
4374;DHT22;2201;51.100;6.814;2023-11-19T15:43:57;12.70;98.20
4374;DHT22;2201;51.100;6.814;2023-11-19T15:46:24;12.70;98.20
4374;DHT22;2201;51.100;6.814;2023-11-19T15:48:52;12.60;98.20
4374;DHT22;2201;51.100;6.814;2023-11-19T15:51:19;12.60;98.20
4374;DHT22;2201;51.100;6.814;2023-11-19T15:53:47;12.60;98.20
4374;DHT22;2201;51.100;6.814;2023-11-19T15:56:14;12.60;98.20
4374;DHT22;2201;51.100;6.814;2023-11-19T15:58:43;12.60;98.20
4374;DHT22;2201;51.100;6.814;2023-11-19T16:01:10;12.60;98.20
4374;DHT22;2201;51.100;6.814;2023-11-19T16:03:38;12.50;98.20
4374;DHT22;2201;51.100;6.814;2023-11-19T16:06:07;12.50;98.20
4374;DHT22;2201;51.100;6.814;2023-11-19T16:08:36;12.50;98.20
4374;DHT22;2201;51.100;6.814;2023-11-19T16:11:03;12.50;98.20
4374;DHT22;2201;51.100;6.814;2023-11-19T16:13:38;12.50;98.20
4374;DHT22;2201;51.100;6.814;2023-11-19T16:19:48;12.40;98.20
4374;DHT22;2201;51.100;6.814;2023-11-19T16:22:21;12.40;98.20
4374;DHT22;2201;51.100;6.814;2023-11-19T16:24:50;12.40;98.20
4374;DHT22;2201;51.100;6.814;2023-11-19T16:27:20;12.40;98.20